sensor_id;sensor_type;location;lat;lon;timestamp;pressure;altitude;pressure_sealevel;temperature
76007;BMP280;64699;0.000;0.000;2023-04-25T00:00:45;99303.31;;;17.10
76007;BMP280;64699;0.000;0.000;2023-04-25T00:03:10;99312.81;;;17.09
76007;BMP280;64699;0.000;0.000;2023-04-25T00:05:35;99310.09;;;17.09
76007;BMP280;64699;0.000;0.000;2023-04-25T00:08:02;99310.09;;;17.09
76007;BMP280;64699;0.000;0.000;2023-04-25T00:10:27;99315.56;;;17.09
76007;BMP280;64699;0.000;0.000;2023-04-25T00:12:52;99303.84;;;17.09
76007;BMP280;64699;0.000;0.000;2023-04-25T00:15:18;99303.09;;;17.08
76007;BMP280;64699;0.000;0.000;2023-04-25T00:17:43;99310.09;;;17.09
76007;BMP280;64699;0.000;0.000;2023-04-25T00:20:10;99308.59;;;17.08
76007;BMP280;64699;0.000;0.000;2023-04-25T00:22:36;99307.16;;;17.07
76007;BMP280;64699;0.000;0.000;2023-04-25T00:25:03;99314.06;;;17.08
76007;BMP280;64699;0.000;0.000;2023-04-25T00:27:28;99318.88;;;17.08
76007;BMP280;64699;0.000;0.000;2023-04-25T00:29:53;99314.06;;;17.08
76007;BMP280;64699;0.000;0.000;2023-04-25T00:32:18;99309.34;;;17.09
76007;BMP280;64699;0.000;0.000;2023-04-25T00:34:44;99305.84;;;17.08
76007;BMP280;64699;0.000;0.000;2023-04-25T00:37:09;99298.91;;;17.07
76007;BMP280;64699;0.000;0.000;2023-04-25T00:39:35;99302.41;;;17.08
76007;BMP280;64699;0.000;0.000;2023-04-25T00:42:00;99297.63;;;17.08
76007;BMP280;64699;0.000;0.000;2023-04-25T00:44:27;99290.69;;;17.07
76007;BMP280;64699;0.000;0.000;2023-04-25T00:46:53;99300.94;;;17.07
76007;BMP280;64699;0.000;0.000;2023-04-25T00:49:18;99292.13;;;17.08
76007;BMP280;64699;0.000;0.000;2023-04-25T00:51:43;99298.19;;;17.07
76007;BMP280;64699;0.000;0.000;2023-04-25T00:54:10;99291.44;;;17.08
76007;BMP280;64699;0.000;0.000;2023-04-25T00:56:35;99289.97;;;17.07
76007;BMP280;64699;0.000;0.000;2023-04-25T00:59:00;99294.19;;;17.08
76007;BMP280;64699;0.000;0.000;2023-04-25T01:01:26;99296.16;;;17.07
76007;BMP280;64699;0.000;0.000;2023-04-25T01:03:51;99292.13;;;17.08
76007;BMP280;64699;0.000;0.000;2023-04-25T01:06:18;99298.19;;;17.07
76007;BMP280;64699;0.000;0.000;2023-04-25T01:08:43;99301.66;;;17.07
76007;BMP280;64699;0.000;0.000;2023-04-25T01:11:08;99309.88;;;17.07
76007;BMP280;64699;0.000;0.000;2023-04-25T01:13:34;99300.94;;;17.07
76007;BMP280;64699;0.000;0.000;2023-04-25T01:16:00;99300.94;;;17.07
76007;BMP280;64699;0.000;0.000;2023-04-25T01:18:25;99289.97;;;17.07
76007;BMP280;64699;0.000;0.000;2023-04-25T01:20:51;99284.47;;;17.07
76007;BMP280;64699;0.000;0.000;2023-04-25T01:23:16;99283.72;;;17.06
76007;BMP280;64699;0.000;0.000;2023-04-25T01:25:42;99279.00;;;17.07
76007;BMP280;64699;0.000;0.000;2023-04-25T01:28:07;99273.50;;;17.07
76007;BMP280;64699;0.000;0.000;2023-04-25T01:30:33;99280.97;;;17.06
76007;BMP280;64699;0.000;0.000;2023-04-25T01:32:58;99268.72;;;17.07
76007;BMP280;64699;0.000;0.000;2023-04-25T01:35:24;99261.78;;;17.06
76007;BMP280;64699;0.000;0.000;2023-04-25T01:37:50;99270.00;;;17.06
76007;BMP280;64699;0.000;0.000;2023-04-25T01:40:15;99272.75;;;17.06
76007;BMP280;64699;0.000;0.000;2023-04-25T01:42:42;99278.25;;;17.06
76007;BMP280;64699;0.000;0.000;2023-04-25T01:45:08;99271.47;;;17.07
76007;BMP280;64699;0.000;0.000;2023-04-25T01:47:34;99273.50;;;17.07
76007;BMP280;64699;0.000;0.000;2023-04-25T01:50:02;99270.00;;;17.06
76007;BMP280;64699;0.000;0.000;2023-04-25T01:52:28;99270.75;;;17.07
76007;BMP280;64699;0.000;0.000;2023-04-25T01:54:53;99266.56;;;17.06
76007;BMP280;64699;0.000;0.000;2023-04-25T01:57:19;99266.56;;;17.06
76007;BMP280;64699;0.000;0.000;2023-04-25T01:59:44;99267.25;;;17.06
76007;BMP280;64699;0.000;0.000;2023-04-25T02:02:10;99265.81;;;17.05
76007;BMP280;64699;0.000;0.000;2023-04-25T02:04:35;99272.03;;;17.06
76007;BMP280;64699;0.000;0.000;2023-04-25T02:07:00;99276.78;;;17.05
76007;BMP280;64699;0.000;0.000;2023-04-25T02:09:25;99264.53;;;17.06
76007;BMP280;64699;0.000;0.000;2023-04-25T02:11:52;99267.25;;;17.06
76007;BMP280;64699;0.000;0.000;2023-04-25T02:14:18;99265.81;;;17.05
76007;BMP280;64699;0.000;0.000;2023-04-25T02:16:43;99263.81;;;17.06
76007;BMP280;64699;0.000;0.000;2023-04-25T02:19:11;99271.28;;;17.05
76007;BMP280;64699;0.000;0.000;2023-04-25T02:21:36;99265.81;;;17.05
76007;BMP280;64699;0.000;0.000;2023-04-25T02:24:02;99266.56;;;17.06
76007;BMP280;64699;0.000;0.000;2023-04-25T02:26:27;99270.00;;;17.06
76007;BMP280;64699;0.000;0.000;2023-04-25T02:28:52;99268.53;;;17.05
76007;BMP280;64699;0.000;0.000;2023-04-25T02:31:18;99267.25;;;17.06
76007;BMP280;64699;0.000;0.000;2023-04-25T02:33:43;99265.81;;;17.05
76007;BMP280;64699;0.000;0.000;2023-04-25T02:36:09;99265.81;;;17.05
76007;BMP280;64699;0.000;0.000;2023-04-25T02:38:34;99271.28;;;17.05
76007;BMP280;64699;0.000;0.000;2023-04-25T02:40:59;99263.06;;;17.05
76007;BMP280;64699;0.000;0.000;2023-04-25T02:43:25;99266.56;;;17.06
76007;BMP280;64699;0.000;0.000;2023-04-25T02:45:50;99265.28;;;17.07
76007;BMP280;64699;0.000;0.000;2023-04-25T02:48:15;99274.03;;;17.05
76007;BMP280;64699;0.000;0.000;2023-04-25T02:50:40;99265.81;;;17.05
76007;BMP280;64699;0.000;0.000;2023-04-25T02:53:06;99267.06;;;17.04
76007;BMP280;64699;0.000;0.000;2023-04-25T02:55:31;99260.31;;;17.05
76007;BMP280;64699;0.000;0.000;2023-04-25T02:57:56;99255.34;;;17.04
76007;BMP280;64699;0.000;0.000;2023-04-25T03:00:21;99259.56;;;17.05
76007;BMP280;64699;0.000;0.000;2023-04-25T03:02:47;99255.56;;;17.06
76007;BMP280;64699;0.000;0.000;2023-04-25T03:05:12;99260.31;;;17.05
76007;BMP280;64699;0.000;0.000;2023-04-25T03:07:37;99247.88;;;17.04
76007;BMP280;64699;0.000;0.000;2023-04-25T03:10:04;99246.41;;;17.03
76007;BMP280;64699;0.000;0.000;2023-04-25T03:12:30;99258.84;;;17.04
76007;BMP280;64699;0.000;0.000;2023-04-25T03:14:55;99258.84;;;17.04
76007;BMP280;64699;0.000;0.000;2023-04-25T03:17:21;99254.06;;;17.05
76007;BMP280;64699;0.000;0.000;2023-04-25T03:19:46;99265.81;;;17.05
76007;BMP280;64699;0.000;0.000;2023-04-25T03:22:11;99264.53;;;17.06
76007;BMP280;64699;0.000;0.000;2023-04-25T03:24:36;99256.09;;;17.04
76007;BMP280;64699;0.000;0.000;2023-04-25T03:27:02;99254.63;;;17.03
76007;BMP280;64699;0.000;0.000;2023-04-25T03:29:27;99237.63;;;16.90
76007;BMP280;64699;0.000;0.000;2023-04-25T03:31:53;99258.84;;;17.04
76007;BMP280;64699;0.000;0.000;2023-04-25T03:34:18;99251.88;;;17.03
76007;BMP280;64699;0.000;0.000;2023-04-25T03:36:44;99264.34;;;17.04
76007;BMP280;64699;0.000;0.000;2023-04-25T03:39:09;99263.59;;;17.04
76007;BMP280;64699;0.000;0.000;2023-04-25T03:41:34;99273.28;;;17.05
76007;BMP280;64699;0.000;0.000;2023-04-25T03:43:59;99269.06;;;17.04
76007;BMP280;64699;0.000;0.000;2023-04-25T03:46:25;99280.78;;;17.04
76007;BMP280;64699;0.000;0.000;2023-04-25T03:48:50;99273.84;;;17.03
76007;BMP280;64699;0.000;0.000;2023-04-25T03:51:15;99272.56;;;17.04
76007;BMP280;64699;0.000;0.000;2023-04-25T03:53:40;99280.78;;;17.04
76007;BMP280;64699;0.000;0.000;2023-04-25T03:56:06;99274.56;;;17.04
76007;BMP280;64699;0.000;0.000;2023-04-25T03:58:31;99276.59;;;17.03
76007;BMP280;64699;0.000;0.000;2023-04-25T04:00:56;99271.81;;;17.04
76007;BMP280;64699;0.000;0.000;2023-04-25T04:03:21;99282.06;;;17.03
76007;BMP280;64699;0.000;0.000;2023-04-25T04:05:46;99276.59;;;17.03
76007;BMP280;64699;0.000;0.000;2023-04-25T04:08:12;99277.88;;;17.02
76007;BMP280;64699;0.000;0.000;2023-04-25T04:10:37;99284.81;;;17.03
76007;BMP280;64699;0.000;0.000;2023-04-25T04:13:02;99282.06;;;17.03
76007;BMP280;64699;0.000;0.000;2023-04-25T04:15:29;99284.09;;;17.03
76007;BMP280;64699;0.000;0.000;2023-04-25T04:17:54;99290.31;;;17.03
76007;BMP280;64699;0.000;0.000;2023-04-25T04:20:20;99300.56;;;17.03
76007;BMP280;64699;0.000;0.000;2023-04-25T04:22:45;99293.03;;;17.03
76007;BMP280;64699;0.000;0.000;2023-04-25T04:25:10;99297.81;;;17.03
76007;BMP280;64699;0.000;0.000;2023-04-25T04:27:36;99297.81;;;17.03
76007;BMP280;64699;0.000;0.000;2023-04-25T04:30:02;99301.28;;;17.03
76007;BMP280;64699;0.000;0.000;2023-04-25T04:32:28;99306.75;;;17.03
76007;BMP280;64699;0.000;0.000;2023-04-25T04:34:55;99302.59;;;17.02
76007;BMP280;64699;0.000;0.000;2023-04-25T04:37:20;99308.78;;;17.03
76007;BMP280;64699;0.000;0.000;2023-04-25T04:39:45;99311.56;;;17.10
76007;BMP280;64699;0.000;0.000;2023-04-25T04:42:11;99311.91;;;17.14
76007;BMP280;64699;0.000;0.000;2023-04-25T04:44:36;99311.75;;;17.12
76007;BMP280;64699;0.000;0.000;2023-04-25T04:47:03;99307.53;;;17.11
76007;BMP280;64699;0.000;0.000;2023-04-25T04:49:31;99312.28;;;17.11
76007;BMP280;64699;0.000;0.000;2023-04-25T04:51:56;99312.28;;;17.11
76007;BMP280;64699;0.000;0.000;2023-04-25T04:54:21;99309.53;;;17.11
76007;BMP280;64699;0.000;0.000;2023-04-25T04:56:46;99304.59;;;17.09
76007;BMP280;64699;0.000;0.000;2023-04-25T04:59:12;99312.06;;;17.09
76007;BMP280;64699;0.000;0.000;2023-04-25T05:01:37;99305.31;;;17.10
76007;BMP280;64699;0.000;0.000;2023-04-25T05:04:02;99301.28;;;17.11
76007;BMP280;64699;0.000;0.000;2023-04-25T05:06:28;99295.09;;;17.10
76007;BMP280;64699;0.000;0.000;2023-04-25T05:08:54;99301.28;;;17.11
76007;BMP280;64699;0.000;0.000;2023-04-25T05:11:19;99300.56;;;17.10
76007;BMP280;64699;0.000;0.000;2023-04-25T05:13:45;99300.56;;;17.10
76007;BMP280;64699;0.000;0.000;2023-04-25T05:16:11;99307.53;;;17.11
76007;BMP280;64699;0.000;0.000;2023-04-25T05:18:36;99306.78;;;17.11
76007;BMP280;64699;0.000;0.000;2023-04-25T05:21:02;99313.03;;;17.11
76007;BMP280;64699;0.000;0.000;2023-04-25T05:23:27;99307.53;;;17.11
76007;BMP280;64699;0.000;0.000;2023-04-25T05:25:53;99308.25;;;17.12
76007;BMP280;64699;0.000;0.000;2023-04-25T05:28:18;99304.22;;;17.13
76007;BMP280;64699;0.000;0.000;2023-04-25T05:30:43;99313.03;;;17.11
76007;BMP280;64699;0.000;0.000;2023-04-25T05:33:08;99313.75;;;17.12
76007;BMP280;64699;0.000;0.000;2023-04-25T05:35:34;99311.56;;;17.10
76007;BMP280;64699;0.000;0.000;2023-04-25T05:37:59;99306.06;;;17.10
76007;BMP280;64699;0.000;0.000;2023-04-25T05:40:24;99312.28;;;17.11
76007;BMP280;64699;0.000;0.000;2023-04-25T05:42:50;99305.31;;;17.10
76007;BMP280;64699;0.000;0.000;2023-04-25T05:45:15;99315.00;;;17.11
76007;BMP280;64699;0.000;0.000;2023-04-25T05:47:42;99311.56;;;17.10
76007;BMP280;64699;0.000;0.000;2023-04-25T05:50:07;99305.31;;;17.10
76007;BMP280;64699;0.000;0.000;2023-04-25T05:52:33;99312.28;;;17.11
76007;BMP280;64699;0.000;0.000;2023-04-25T05:54:58;99314.28;;;17.10
76007;BMP280;64699;0.000;0.000;2023-04-25T05:57:24;99312.28;;;17.11
76007;BMP280;64699;0.000;0.000;2023-04-25T05:59:49;99310.28;;;17.11
76007;BMP280;64699;0.000;0.000;2023-04-25T06:02:15;99306.06;;;17.10
76007;BMP280;64699;0.000;0.000;2023-04-25T06:04:40;99310.28;;;17.11
76007;BMP280;64699;0.000;0.000;2023-04-25T06:07:05;99317.03;;;17.10
76007;BMP280;64699;0.000;0.000;2023-04-25T06:09:30;99322.53;;;17.10
76007;BMP280;64699;0.000;0.000;2023-04-25T06:11:56;99326.75;;;17.11
76007;BMP280;64699;0.000;0.000;2023-04-25T06:14:21;99334.22;;;17.11
76007;BMP280;64699;0.000;0.000;2023-04-25T06:16:46;99328.00;;;17.10
76007;BMP280;64699;0.000;0.000;2023-04-25T06:19:11;99333.50;;;17.10
76007;BMP280;64699;0.000;0.000;2023-04-25T06:21:36;99339.00;;;17.10
76007;BMP280;64699;0.000;0.000;2023-04-25T06:24:02;99347.22;;;17.10
76007;BMP280;64699;0.000;0.000;2023-04-25T06:26:27;99351.44;;;17.11
76007;BMP280;64699;0.000;0.000;2023-04-25T06:28:52;99346.66;;;17.12
76007;BMP280;64699;0.000;0.000;2023-04-25T06:31:17;99356.94;;;17.11
76007;BMP280;64699;0.000;0.000;2023-04-25T06:33:43;99356.94;;;17.11
76007;BMP280;64699;0.000;0.000;2023-04-25T06:36:08;99350.16;;;17.12
76007;BMP280;64699;0.000;0.000;2023-04-25T06:38:33;99352.16;;;17.12
76007;BMP280;64699;0.000;0.000;2023-04-25T06:40:59;99342.47;;;17.11
76007;BMP280;64699;0.000;0.000;2023-04-25T06:43:24;99348.69;;;17.11
76007;BMP280;64699;0.000;0.000;2023-04-25T06:45:50;99353.44;;;17.11
76007;BMP280;64699;0.000;0.000;2023-04-25T06:48:15;99351.44;;;17.11
76007;BMP280;64699;0.000;0.000;2023-04-25T06:50:40;99354.91;;;17.12
76007;BMP280;64699;0.000;0.000;2023-04-25T06:53:06;99347.41;;;17.12
76007;BMP280;64699;0.000;0.000;2023-04-25T06:55:31;99348.84;;;17.13
76007;BMP280;64699;0.000;0.000;2023-04-25T06:57:56;99347.41;;;17.12
76007;BMP280;64699;0.000;0.000;2023-04-25T07:00:21;99348.84;;;17.13
76007;BMP280;64699;0.000;0.000;2023-04-25T07:02:47;99352.91;;;17.12
76007;BMP280;64699;0.000;0.000;2023-04-25T07:05:12;99348.69;;;17.11
76007;BMP280;64699;0.000;0.000;2023-04-25T07:07:37;99345.94;;;17.11
76007;BMP280;64699;0.000;0.000;2023-04-25T07:10:03;99348.13;;;17.13
76007;BMP280;64699;0.000;0.000;2023-04-25T07:12:28;99341.94;;;17.12
76007;BMP280;64699;0.000;0.000;2023-04-25T07:14:53;99351.44;;;17.11
76007;BMP280;64699;0.000;0.000;2023-04-25T07:17:18;99347.41;;;17.12
76007;BMP280;64699;0.000;0.000;2023-04-25T07:19:44;99351.44;;;17.11
76007;BMP280;64699;0.000;0.000;2023-04-25T07:22:09;99343.91;;;17.12
76007;BMP280;64699;0.000;0.000;2023-04-25T07:24:34;99352.91;;;17.12
76007;BMP280;64699;0.000;0.000;2023-04-25T07:27:00;99346.66;;;17.12
76007;BMP280;64699;0.000;0.000;2023-04-25T07:29:26;99352.16;;;17.12
76007;BMP280;64699;0.000;0.000;2023-04-25T07:31:51;99349.41;;;17.12
76007;BMP280;64699;0.000;0.000;2023-04-25T07:34:16;99350.16;;;17.12
76007;BMP280;64699;0.000;0.000;2023-04-25T07:36:42;99356.94;;;17.11
76007;BMP280;64699;0.000;0.000;2023-04-25T07:39:07;99361.84;;;17.13
76007;BMP280;64699;0.000;0.000;2023-04-25T07:41:34;99369.38;;;17.12
76007;BMP280;64699;0.000;0.000;2023-04-25T07:43:59;99369.38;;;17.12
76007;BMP280;64699;0.000;0.000;2023-04-25T07:46:25;99369.38;;;17.12
76007;BMP280;64699;0.000;0.000;2023-04-25T07:48:50;99374.84;;;17.12
76007;BMP280;64699;0.000;0.000;2023-04-25T07:51:15;99367.91;;;17.11
76007;BMP280;64699;0.000;0.000;2023-04-25T07:53:40;99367.91;;;17.11
76007;BMP280;64699;0.000;0.000;2023-04-25T07:56:06;99373.38;;;17.11
76007;BMP280;64699;0.000;0.000;2023-04-25T07:58:33;99367.91;;;17.11
76007;BMP280;64699;0.000;0.000;2023-04-25T08:00:58;99378.88;;;17.11
76007;BMP280;64699;0.000;0.000;2023-04-25T08:03:24;99376.13;;;17.11
76007;BMP280;64699;0.000;0.000;2023-04-25T08:05:50;99378.88;;;17.11
76007;BMP280;64699;0.000;0.000;2023-04-25T08:08:15;99385.09;;;17.12
76007;BMP280;64699;0.000;0.000;2023-04-25T08:10:40;99372.63;;;17.11
76007;BMP280;64699;0.000;0.000;2023-04-25T08:13:05;99372.63;;;17.11
76007;BMP280;64699;0.000;0.000;2023-04-25T08:15:31;99377.41;;;17.10
76007;BMP280;64699;0.000;0.000;2023-04-25T08:17:56;99371.91;;;17.10
76007;BMP280;64699;0.000;0.000;2023-04-25T08:20:21;99362.34;;;16.96
76007;BMP280;64699;0.000;0.000;2023-04-25T08:22:46;99378.88;;;17.11
76007;BMP280;64699;0.000;0.000;2023-04-25T08:25:13;99377.41;;;17.10
76007;BMP280;64699;0.000;0.000;2023-04-25T08:27:39;99388.38;;;17.10
76007;BMP280;64699;0.000;0.000;2023-04-25T08:30:04;99376.66;;;17.10
76007;BMP280;64699;0.000;0.000;2023-04-25T08:32:30;99385.09;;;17.12
76007;BMP280;64699;0.000;0.000;2023-04-25T08:34:55;99381.25;;;17.15
76007;BMP280;64699;0.000;0.000;2023-04-25T08:37:21;99387.28;;;17.13
76007;BMP280;64699;0.000;0.000;2023-04-25T08:39:46;99388.56;;;17.12
76007;BMP280;64699;0.000;0.000;2023-04-25T08:42:13;99399.56;;;17.12
76007;BMP280;64699;0.000;0.000;2023-04-25T08:44:39;99395.34;;;17.11
76007;BMP280;64699;0.000;0.000;2023-04-25T08:47:04;99407.59;;;17.10
76007;BMP280;64699;0.000;0.000;2023-04-25T08:49:31;99400.06;;;17.11
76007;BMP280;64699;0.000;0.000;2023-04-25T08:51:57;99398.59;;;17.10
76007;BMP280;64699;0.000;0.000;2023-04-25T08:54:24;99403.38;;;17.09
76007;BMP280;64699;0.000;0.000;2023-04-25T08:56:52;99410.34;;;17.10
76007;BMP280;64699;0.000;0.000;2023-04-25T08:59:18;99410.34;;;17.10
76007;BMP280;64699;0.000;0.000;2023-04-25T09:01:44;99418.56;;;17.10
76007;BMP280;64699;0.000;0.000;2023-04-25T09:04:10;99420.56;;;17.10
76007;BMP280;64699;0.000;0.000;2023-04-25T09:06:42;99423.31;;;17.10
76007;BMP280;64699;0.000;0.000;2023-04-25T09:09:14;99436.31;;;17.09
76007;BMP280;64699;0.000;0.000;2023-04-25T09:11:41;99441.78;;;17.09
76007;BMP280;64699;0.000;0.000;2023-04-25T09:14:25;99452.75;;;17.09
76007;BMP280;64699;0.000;0.000;2023-04-25T09:19:40;99456.97;;;17.10
76007;BMP280;64699;0.000;0.000;2023-04-25T09:22:07;99450.75;;;17.10
76007;BMP280;64699;0.000;0.000;2023-04-25T09:24:33;99452.00;;;17.09
76007;BMP280;64699;0.000;0.000;2023-04-25T09:26:59;99452.00;;;17.09
76007;BMP280;64699;0.000;0.000;2023-04-25T09:29:33;99456.06;;;17.08
76007;BMP280;64699;0.000;0.000;2023-04-25T09:34:40;99452.06;;;17.16
76007;BMP280;64699;0.000;0.000;2023-04-25T09:37:06;99446.59;;;17.24
76007;BMP280;64699;0.000;0.000;2023-04-25T09:39:32;99444.59;;;17.24
76007;BMP280;64699;0.000;0.000;2023-04-25T09:41:57;99446.06;;;17.25
76007;BMP280;64699;0.000;0.000;2023-04-25T09:44:24;99446.78;;;17.26
76007;BMP280;64699;0.000;0.000;2023-04-25T09:46:49;99451.75;;;17.27
76007;BMP280;64699;0.000;0.000;2023-04-25T09:49:19;99461.63;;;17.30
76007;BMP280;64699;0.000;0.000;2023-04-25T09:51:53;99473.34;;;17.31
76007;BMP280;64699;0.000;0.000;2023-04-25T09:54:18;99468.22;;;17.27
76007;BMP280;64699;0.000;0.000;2023-04-25T09:56:44;99468.22;;;17.27
76007;BMP280;64699;0.000;0.000;2023-04-25T09:59:12;99471.72;;;17.35
76007;BMP280;64699;0.000;0.000;2023-04-25T10:01:38;99468.59;;;17.31
76007;BMP280;64699;0.000;0.000;2023-04-25T10:04:05;99470.63;;;17.31
76007;BMP280;64699;0.000;0.000;2023-04-25T10:06:31;99460.91;;;17.37
76007;BMP280;64699;0.000;0.000;2023-04-25T10:08:58;99469.91;;;17.38
76007;BMP280;64699;0.000;0.000;2023-04-25T10:11:24;99476.69;;;17.37
76007;BMP280;64699;0.000;0.000;2023-04-25T10:13:49;99478.50;;;17.34
76007;BMP280;64699;0.000;0.000;2023-04-25T10:16:15;99483.06;;;17.39
76007;BMP280;64699;0.000;0.000;2023-04-25T10:18:41;99481.44;;;17.36
76007;BMP280;64699;0.000;0.000;2023-04-25T10:21:06;99481.44;;;17.36
76007;BMP280;64699;0.000;0.000;2023-04-25T10:23:32;99475.06;;;17.41
76007;BMP280;64699;0.000;0.000;2023-04-25T10:25:59;99474.84;;;17.39
76007;BMP280;64699;0.000;0.000;2023-04-25T10:28:25;99475.06;;;17.41
76007;BMP280;64699;0.000;0.000;2023-04-25T10:30:56;99480.72;;;17.43
76007;BMP280;64699;0.000;0.000;2023-04-25T10:33:32;99469.69;;;17.36
76007;BMP280;64699;0.000;0.000;2023-04-25T10:36:12;99470.47;;;17.43
76007;BMP280;64699;0.000;0.000;2023-04-25T10:38:38;99472.31;;;17.41
76007;BMP280;64699;0.000;0.000;2023-04-25T10:41:04;99473.75;;;17.42
76007;BMP280;64699;0.000;0.000;2023-04-25T10:43:33;99465.56;;;17.57
76007;BMP280;64699;0.000;0.000;2023-04-25T10:45:59;99471.00;;;17.42
76007;BMP280;64699;0.000;0.000;2023-04-25T10:48:26;99469.91;;;17.38
76007;BMP280;64699;0.000;0.000;2023-04-25T10:51:06;99467.72;;;17.36
76007;BMP280;64699;0.000;0.000;2023-04-25T10:53:33;99470.78;;;17.33
76007;BMP280;64699;0.000;0.000;2023-04-25T10:55:58;99470.63;;;17.31
76007;BMP280;64699;0.000;0.000;2023-04-25T10:58:23;99470.78;;;17.33
76007;BMP280;64699;0.000;0.000;2023-04-25T11:00:49;99471.88;;;17.30
76007;BMP280;64699;0.000;0.000;2023-04-25T11:03:15;99483.59;;;17.30
76007;BMP280;64699;0.000;0.000;2023-04-25T11:05:41;99476.63;;;17.29
76007;BMP280;64699;0.000;0.000;2023-04-25T11:08:11;99473.72;;;17.27
76007;BMP280;64699;0.000;0.000;2023-04-25T11:10:36;99485.97;;;17.26
76007;BMP280;64699;0.000;0.000;2023-04-25T11:13:01;99478.66;;;17.29
76007;BMP280;64699;0.000;0.000;2023-04-25T11:15:27;99481.75;;;17.25
76007;BMP280;64699;0.000;0.000;2023-04-25T11:17:52;99473.88;;;17.22
76007;BMP280;64699;0.000;0.000;2023-04-25T11:20:18;99474.22;;;17.18
76007;BMP280;64699;0.000;0.000;2023-04-25T11:22:44;99472.53;;;17.15
76007;BMP280;64699;0.000;0.000;2023-04-25T11:25:10;99480.56;;;17.13
76007;BMP280;64699;0.000;0.000;2023-04-25T11:27:54;99478.38;;;17.12
76007;BMP280;64699;0.000;0.000;2023-04-25T11:30:21;99481.69;;;17.10
76007;BMP280;64699;0.000;0.000;2023-04-25T11:32:47;99492.66;;;17.10
76007;BMP280;64699;0.000;0.000;2023-04-25T11:35:12;99485.69;;;17.09
76007;BMP280;64699;0.000;0.000;2023-04-25T11:37:40;99482.75;;;17.07
76007;BMP280;64699;0.000;0.000;2023-04-25T11:40:06;99478.00;;;17.08
76007;BMP280;64699;0.000;0.000;2023-04-25T11:42:32;99486.75;;;17.06
76007;BMP280;64699;0.000;0.000;2023-04-25T11:44:58;99485.31;;;17.05
76007;BMP280;64699;0.000;0.000;2023-04-25T11:47:30;99488.03;;;17.05
76007;BMP280;64699;0.000;0.000;2023-04-25T11:49:55;99487.28;;;17.05
76007;BMP280;64699;0.000;0.000;2023-04-25T11:52:22;99483.81;;;17.04
76007;BMP280;64699;0.000;0.000;2023-04-25T11:54:47;99483.06;;;17.04
76007;BMP280;64699;0.000;0.000;2023-04-25T11:57:12;99496.06;;;17.03
76007;BMP280;64699;0.000;0.000;2023-04-25T11:59:38;99484.38;;;17.03
76007;BMP280;64699;0.000;0.000;2023-04-25T12:02:03;99484.38;;;17.03
76007;BMP280;64699;0.000;0.000;2023-04-25T12:04:29;99484.94;;;17.01
76007;BMP280;64699;0.000;0.000;2023-04-25T12:06:55;99482.19;;;17.01
76007;BMP280;64699;0.000;0.000;2023-04-25T12:09:21;99482.19;;;17.01
76007;BMP280;64699;0.000;0.000;2023-04-25T12:11:53;99484.94;;;17.01
76007;BMP280;64699;0.000;0.000;2023-04-25T12:14:22;99479.44;;;17.01
76007;BMP280;64699;0.000;0.000;2023-04-25T12:16:49;99479.44;;;17.01
76007;BMP280;64699;0.000;0.000;2023-04-25T12:19:16;99472.47;;;17.00
76007;BMP280;64699;0.000;0.000;2023-04-25T12:21:42;99462.75;;;16.99
76007;BMP280;64699;0.000;0.000;2023-04-25T12:29:24;99476.47;;;16.99
76007;BMP280;64699;0.000;0.000;2023-04-25T12:31:50;99462.59;;;16.97
76007;BMP280;64699;0.000;0.000;2023-04-25T12:34:16;99468.81;;;16.98
76007;BMP280;64699;0.000;0.000;2023-04-25T12:36:41;99461.28;;;16.98
76007;BMP280;64699;0.000;0.000;2023-04-25T12:39:06;99466.06;;;16.98
76007;BMP280;64699;0.000;0.000;2023-04-25T12:41:32;99467.31;;;16.97
76007;BMP280;64699;0.000;0.000;2023-04-25T12:43:58;99458.38;;;16.96
76007;BMP280;64699;0.000;0.000;2023-04-25T12:46:23;99462.59;;;16.97
76007;BMP280;64699;0.000;0.000;2023-04-25T12:48:48;99461.13;;;16.96
76007;BMP280;64699;0.000;0.000;2023-04-25T12:51:14;99459.66;;;16.95
76007;BMP280;64699;0.000;0.000;2023-04-25T12:53:39;99455.63;;;16.96
76007;BMP280;64699;0.000;0.000;2023-04-25T12:56:06;99454.16;;;16.95
76007;BMP280;64699;0.000;0.000;2023-04-25T12:58:31;99458.38;;;16.96
76007;BMP280;64699;0.000;0.000;2023-04-25T13:00:58;99449.38;;;16.96
76007;BMP280;64699;0.000;0.000;2023-04-25T13:03:23;99452.88;;;16.96
76007;BMP280;64699;0.000;0.000;2023-04-25T13:05:49;99454.16;;;16.95
76007;BMP280;64699;0.000;0.000;2023-04-25T13:08:15;99449.38;;;16.96
76007;BMP280;64699;0.000;0.000;2023-04-25T13:10:41;99454.16;;;16.95
76007;BMP280;64699;0.000;0.000;2023-04-25T13:13:06;99442.44;;;16.95
76007;BMP280;64699;0.000;0.000;2023-04-25T13:15:32;99443.19;;;16.95
76007;BMP280;64699;0.000;0.000;2023-04-25T13:17:57;99447.19;;;16.94
76007;BMP280;64699;0.000;0.000;2023-04-25T13:20:22;99443.19;;;16.95
76007;BMP280;64699;0.000;0.000;2023-04-25T13:22:47;99440.44;;;16.95
76007;BMP280;64699;0.000;0.000;2023-04-25T13:25:13;99447.91;;;16.95
76007;BMP280;64699;0.000;0.000;2023-04-25T13:27:38;99442.44;;;16.95
76007;BMP280;64699;0.000;0.000;2023-04-25T13:30:05;99442.44;;;16.95
76007;BMP280;64699;0.000;0.000;2023-04-25T13:32:34;99430.75;;;16.94
76007;BMP280;64699;0.000;0.000;2023-04-25T13:35:01;99438.97;;;16.94
76007;BMP280;64699;0.000;0.000;2023-04-25T13:37:27;99446.44;;;16.94
76007;BMP280;64699;0.000;0.000;2023-04-25T13:39:52;99440.97;;;16.94
76007;BMP280;64699;0.000;0.000;2023-04-25T13:42:18;99443.72;;;16.94
76007;BMP280;64699;0.000;0.000;2023-04-25T13:44:44;99434.78;;;16.93
76007;BMP280;64699;0.000;0.000;2023-04-25T13:47:09;99441.72;;;16.94
76007;BMP280;64699;0.000;0.000;2023-04-25T13:49:34;99439.53;;;16.93
76007;BMP280;64699;0.000;0.000;2023-04-25T13:51:59;99439.53;;;16.93
76007;BMP280;64699;0.000;0.000;2023-04-25T13:54:25;99443.00;;;16.93
76007;BMP280;64699;0.000;0.000;2023-04-25T13:56:50;99441.50;;;16.92
76007;BMP280;64699;0.000;0.000;2023-04-25T13:59:16;99440.28;;;16.93
76007;BMP280;64699;0.000;0.000;2023-04-25T14:01:42;99449.03;;;16.92
76007;BMP280;64699;0.000;0.000;2023-04-25T14:04:07;99439.53;;;16.93
76007;BMP280;64699;0.000;0.000;2023-04-25T14:06:32;99444.25;;;16.92
76007;BMP280;64699;0.000;0.000;2023-04-25T14:08:57;99449.75;;;16.92
76007;BMP280;64699;0.000;0.000;2023-04-25T14:11:25;99448.50;;;16.93
76007;BMP280;64699;0.000;0.000;2023-04-25T14:13:50;99444.25;;;16.92
76007;BMP280;64699;0.000;0.000;2023-04-25T14:16:16;99438.06;;;16.92
76007;BMP280;64699;0.000;0.000;2023-04-25T14:18:41;99449.75;;;16.92
76007;BMP280;64699;0.000;0.000;2023-04-25T14:21:06;99447.00;;;16.92
76007;BMP280;64699;0.000;0.000;2023-04-25T14:23:32;99448.28;;;16.91